Time;durP1;ratioP1;P1;durP2;ratioP2;P2;SDS_P1;SDS_P2;PMS_P1;PMS_P2;Temp;Humidity;BMP_temperature;BMP_pressure;BME280_temperature;BME280_humidity;BME280_pressure;Samples;Min_cycle;Max_cycle;Signal;HPM_P1;HPM_P2
2021/09/20 00:00:11;;;;;;;8.17;7.33;;;;;;;;;;5069596;28;20942;-78
2021/09/20 00:02:38;;;;;;;8.27;7.50;;;;;;;;;;5070853;28;20485;-77
2021/09/20 00:05:07;;;;;;;7.50;6.80;;;;;;;;;;5069930;28;20805;-78
2021/09/20 00:07:34;;;;;;;7.87;7.10;;;;;;;;;;5070029;28;20473;-78
2021/09/20 00:10:01;;;;;;;10.27;7.03;;;;;;;;;;5071421;28;20484;-78
2021/09/20 00:12:28;;;;;;;7.33;6.60;;;;;;;;;;5072155;28;20499;-80
2021/09/20 00:14:57;;;;;;;8.10;7.30;;;;;;;;;;5073342;28;20447;-79
2021/09/20 00:17:24;;;;;;;8.07;7.27;;;;;;;;;;5073026;28;20444;-80
2021/09/20 00:19:51;;;;;;;7.27;6.67;;;;;;;;;;5069916;28;20453;-78
2021/09/20 00:22:18;;;;;;;8.37;7.57;;;;;;;;;;5068667;28;20451;-78
2021/09/20 00:24:46;;;;;;;7.70;6.93;;;;;;;;;;5070611;28;20829;-78
2021/09/20 00:27:13;;;;;;;7.43;6.73;;;;;;;;;;5071018;28;20445;-80
2021/09/20 00:29:40;;;;;;;8.10;7.30;;;;;;;;;;5071214;28;20467;-78
2021/09/20 00:32:09;;;;;;;8.00;7.30;;;;;;;;;;5071035;28;20487;-79
2021/09/20 00:34:36;;;;;;;8.87;7.90;;;;;;;;;;5073059;28;20446;-78
2021/09/20 00:37:03;;;;;;;9.10;8.20;;;;;;;;;;5072979;28;20771;-78
2021/09/20 00:39:30;;;;;;;9.00;8.10;;;;;;;;;;5073086;28;20973;-79
2021/09/20 00:41:57;;;;;;;8.63;7.60;;;;;;;;;;5070391;28;21157;-80
2021/09/20 00:44:24;;;;;;;9.33;8.00;;;;;;;;;;5068781;28;20467;-79
2021/09/20 00:46:52;;;;;;;8.23;7.40;;;;;;;;;;5070444;28;20452;-78
2021/09/20 00:49:20;;;;;;;8.97;8.07;;;;;;;;;;5070538;28;20818;-80
2021/09/20 00:51:47;;;;;;;8.67;7.87;;;;;;;;;;5074845;28;20800;-77
2021/09/20 00:54:14;;;;;;;9.80;8.17;;;;;;;;;;5075020;28;20773;-79
2021/09/20 00:56:42;;;;;;;8.57;7.77;;;;;;;;;;5072259;28;20436;-79
2021/09/20 00:59:09;;;;;;;8.60;7.60;;;;;;;;;;5076711;28;20467;-78
2021/09/20 01:01:37;;;;;;;9.27;8.27;;;;;;;;;;5076548;28;20431;-76
2021/09/20 01:04:04;;;;;;;9.23;8.30;;;;;;;;;;5074566;28;20922;-79
2021/09/20 01:06:33;;;;;;;9.50;8.60;;;;;;;;;;5071652;28;20439;-78
2021/09/20 01:09:00;;;;;;;8.67;7.87;;;;;;;;;;5073834;28;20463;-78
2021/09/20 01:11:27;;;;;;;7.53;6.83;;;;;;;;;;5073972;28;20436;-79
2021/09/20 01:13:54;;;;;;;9.47;8.47;;;;;;;;;;5074305;28;20833;-80
2021/09/20 01:16:22;;;;;;;9.23;7.67;;;;;;;;;;5074219;28;20448;-79
2021/09/20 01:18:49;;;;;;;8.80;7.90;;;;;;;;;;5075343;28;20463;-80
2021/09/20 01:21:16;;;;;;;8.40;7.60;;;;;;;;;;5076201;28;20450;-78
2021/09/20 01:23:45;;;;;;;9.43;8.20;;;;;;;;;;5076316;28;20440;-79
2021/09/20 01:26:12;;;;;;;9.50;8.60;;;;;;;;;;5074662;28;20440;-78
2021/09/20 01:28:40;;;;;;;8.47;7.60;;;;;;;;;;5070510;28;20933;-78
2021/09/20 01:31:07;;;;;;;8.83;7.67;;;;;;;;;;5072825;28;20471;-79
2021/09/20 01:33:34;;;;;;;9.50;8.53;;;;;;;;;;5073932;28;20865;-79
2021/09/20 01:36:02;;;;;;;8.50;7.80;;;;;;;;;;5073712;28;20444;-76
2021/09/20 01:38:29;;;;;;;9.80;8.83;;;;;;;;;;5074371;28;20440;-80
2021/09/20 01:40:57;;;;;;;9.30;8.40;;;;;;;;;;5075209;28;20467;-80
2021/09/20 01:43:24;;;;;;;8.27;7.57;;;;;;;;;;5075564;28;20454;-78
2021/09/20 01:45:52;;;;;;;9.80;8.80;;;;;;;;;;5076017;28;20443;-79
2021/09/20 01:48:19;;;;;;;8.80;7.90;;;;;;;;;;5074712;28;20447;-77
2021/09/20 01:50:46;;;;;;;12.23;7.83;;;;;;;;;;5070685;28;20468;-77
2021/09/20 01:53:14;;;;;;;8.97;8.13;;;;;;;;;;5072340;28;20569;-78
2021/09/20 01:55:41;;;;;;;8.90;8.00;;;;;;;;;;5073240;28;20444;-77
2021/09/20 01:58:10;;;;;;;10.13;9.20;;;;;;;;;;5073504;28;21226;-78
2021/09/20 02:00:43;;;;;;;9.40;8.40;;;;;;;;;;5073075;28;20479;-78
2021/09/20 02:03:10;;;;;;;9.47;8.57;;;;;;;;;;5073319;28;20471;-78
2021/09/20 02:05:37;;;;;;;8.67;7.80;;;;;;;;;;5075439;28;20452;-78
2021/09/20 02:08:04;;;;;;;8.80;7.90;;;;;;;;;;5075170;28;20472;-78
2021/09/20 02:10:32;;;;;;;9.27;8.37;;;;;;;;;;5074533;28;20472;-78
2021/09/20 02:12:59;;;;;;;11.30;7.83;;;;;;;;;;5070768;28;20476;-77
2021/09/20 02:15:27;;;;;;;9.20;8.00;;;;;;;;;;5071813;28;20463;-79
2021/09/20 02:17:55;;;;;;;9.93;9.03;;;;;;;;;;5073251;28;20444;-78
2021/09/20 02:20:22;;;;;;;9.47;8.50;;;;;;;;;;5072894;28;20468;-79
2021/09/20 02:22:49;;;;;;;9.00;7.70;;;;;;;;;;5073223;28;20444;-75
2021/09/20 02:25:16;;;;;;;9.03;7.93;;;;;;;;;;5074073;28;20440;-77
2021/09/20 02:27:43;;;;;;;9.43;8.20;;;;;;;;;;5074865;28;20444;-76
2021/09/20 02:30:11;;;;;;;8.30;7.50;;;;;;;;;;5075001;28;20459;-78
2021/09/20 02:32:40;;;;;;;9.17;8.37;;;;;;;;;;5074590;28;20480;-78
2021/09/20 02:35:07;;;;;;;9.50;8.43;;;;;;;;;;5070383;28;20706;-76
2021/09/20 02:37:36;;;;;;;9.87;8.83;;;;;;;;;;5070861;28;20436;-78
2021/09/20 02:40:04;;;;;;;8.73;7.83;;;;;;;;;;5072175;28;20904;-79
2021/09/20 02:42:31;;;;;;;10.10;9.20;;;;;;;;;;5072334;28;20436;-79
2021/09/20 02:44:58;;;;;;;9.33;8.10;;;;;;;;;;5072429;28;20956;-77
2021/09/20 02:47:25;;;;;;;9.50;8.63;;;;;;;;;;5071540;28;20453;-79
2021/09/20 02:49:54;;;;;;;8.80;8.00;;;;;;;;;;5069782;28;20460;-79
2021/09/20 02:52:21;;;;;;;9.10;8.20;;;;;;;;;;5070932;28;20452;-80
2021/09/20 02:54:48;;;;;;;10.23;8.13;;;;;;;;;;5072507;28;20440;-77
2021/09/20 02:57:15;;;;;;;9.03;8.13;;;;;;;;;;5072541;28;20451;-78
2021/09/20 02:59:42;;;;;;;9.17;8.37;;;;;;;;;;5066541;28;20479;-78
2021/09/20 03:02:10;;;;;;;9.67;7.80;;;;;;;;;;5070002;28;20949;-79
2021/09/20 03:04:37;;;;;;;10.13;9.07;;;;;;;;;;5074212;28;20500;-77
2021/09/20 03:07:05;;;;;;;9.73;8.73;;;;;;;;;;5074216;28;20835;-77
2021/09/20 03:09:33;;;;;;;9.67;8.10;;;;;;;;;;5073239;28;20468;-77
2021/09/20 03:12:00;;;;;;;8.97;8.07;;;;;;;;;;5069112;28;20444;-76
2021/09/20 03:14:27;;;;;;;10.93;8.47;;;;;;;;;;5070255;28;20991;-78
2021/09/20 03:16:54;;;;;;;9.07;8.07;;;;;;;;;;5071937;28;20440;-78
2021/09/20 03:19:21;;;;;;;9.60;8.70;;;;;;;;;;5071610;28;20470;-77
2021/09/20 03:21:48;;;;;;;9.73;8.80;;;;;;;;;;5072211;28;20444;-78
2021/09/20 03:24:17;;;;;;;9.73;8.70;;;;;;;;;;5072934;28;20452;-76
2021/09/20 03:26:44;;;;;;;11.73;8.37;;;;;;;;;;5073993;28;20448;-78
2021/09/20 03:29:11;;;;;;;9.33;8.43;;;;;;;;;;5073890;28;20468;-78
2021/09/20 03:31:39;;;;;;;8.43;7.63;;;;;;;;;;5073690;28;20444;-76
2021/09/20 03:34:06;;;;;;;10.00;9.00;;;;;;;;;;5069370;28;20460;-76
2021/09/20 03:36:33;;;;;;;10.13;8.60;;;;;;;;;;5069837;28;20455;-78
2021/09/20 03:39:00;;;;;;;10.07;8.40;;;;;;;;;;5071396;28;20436;-77
2021/09/20 03:41:29;;;;;;;8.70;7.80;;;;;;;;;;5071544;28;20563;-77
2021/09/20 03:43:56;;;;;;;9.00;7.87;;;;;;;;;;5071914;28;20455;-79
2021/09/20 03:46:23;;;;;;;9.60;8.60;;;;;;;;;;5074213;28;20456;-79
2021/09/20 03:48:50;;;;;;;9.97;8.97;;;;;;;;;;5076001;28;20459;-79
2021/09/20 03:51:18;;;;;;;12.27;8.93;;;;;;;;;;5073864;28;20447;-78
2021/09/20 03:53:45;;;;;;;12.30;8.60;;;;;;;;;;5073818;28;20490;-78
2021/09/20 03:56:12;;;;;;;12.20;9.17;;;;;;;;;;5069611;28;20436;-78
2021/09/20 03:58:41;;;;;;;11.33;8.80;;;;;;;;;;5069386;28;20444;-79
2021/09/20 04:01:08;;;;;;;9.43;8.53;;;;;;;;;;5071054;28;20475;-77
2021/09/20 04:03:35;;;;;;;11.63;8.57;;;;;;;;;;5071407;28;20447;-76
2021/09/20 04:06:02;;;;;;;9.83;8.93;;;;;;;;;;5069329;28;20456;-76
2021/09/20 04:08:29;;;;;;;9.63;8.53;;;;;;;;;;5070993;28;20472;-79
2021/09/20 04:10:57;;;;;;;9.73;8.30;;;;;;;;;;5068640;28;20535;-78
2021/09/20 04:13:24;;;;;;;9.77;7.90;;;;;;;;;;5070390;28;20480;-77
2021/09/20 04:15:54;;;;;;;8.03;7.33;;;;;;;;;;5071466;28;20446;-77
2021/09/20 04:18:23;;;;;;;9.00;7.70;;;;;;;;;;5070005;28;20444;-78
2021/09/20 04:20:54;;;;;;;8.93;8.03;;;;;;;;;;5071394;28;20468;-79
2021/09/20 04:23:22;;;;;;;10.13;8.83;;;;;;;;;;5071755;28;20544;-81
2021/09/20 04:25:50;;;;;;;9.90;8.90;;;;;;;;;;5076043;28;20936;-77
2021/09/20 04:28:18;;;;;;;10.70;8.50;;;;;;;;;;5077149;28;20436;-77
2021/09/20 04:30:48;;;;;;;10.07;8.67;;;;;;;;;;5076673;28;21032;-77
2021/09/20 04:33:17;;;;;;;9.70;8.80;;;;;;;;;;5071979;28;20472;-79
2021/09/20 04:35:45;;;;;;;9.53;8.47;;;;;;;;;;5071896;28;20436;-78
2021/09/20 04:38:13;;;;;;;10.00;7.97;;;;;;;;;;5075062;28;20446;-77
2021/09/20 04:40:40;;;;;;;9.27;8.20;;;;;;;;;;5073846;28;20472;-78
2021/09/20 04:43:08;;;;;;;8.70;7.80;;;;;;;;;;5074057;28;20443;-80
2021/09/20 04:45:35;;;;;;;9.33;8.20;;;;;;;;;;5074931;28;20965;-80
2021/09/20 04:48:02;;;;;;;8.93;7.93;;;;;;;;;;5076985;28;20440;-78
2021/09/20 04:50:31;;;;;;;9.20;7.50;;;;;;;;;;5076790;28;20976;-80
2021/09/20 04:52:58;;;;;;;9.87;8.00;;;;;;;;;;5076731;28;20845;-78
2021/09/20 04:55:25;;;;;;;8.90;8.00;;;;;;;;;;5073275;28;20462;-77
2021/09/20 04:57:54;;;;;;;9.40;8.50;;;;;;;;;;5072825;28;20436;-79
2021/09/20 05:00:21;;;;;;;10.80;8.50;;;;;;;;;;5073684;28;20475;-79
2021/09/20 05:02:49;;;;;;;8.53;7.67;;;;;;;;;;5074473;28;20940;-78
2021/09/20 05:05:16;;;;;;;10.17;9.07;;;;;;;;;;5074834;28;20444;-78
2021/09/20 05:07:44;;;;;;;9.30;8.40;;;;;;;;;;5074421;28;20464;-77
2021/09/20 05:10:11;;;;;;;8.83;7.93;;;;;;;;;;5076594;28;20455;-79
2021/09/20 05:12:39;;;;;;;9.50;8.20;;;;;;;;;;5076438;28;20455;-78
2021/09/20 05:15:06;;;;;;;11.50;8.47;;;;;;;;;;5076302;28;20480;-76
2021/09/20 05:17:33;;;;;;;8.93;8.03;;;;;;;;;;5072979;28;20439;-78
2021/09/20 05:20:00;;;;;;;9.97;7.87;;;;;;;;;;5071556;28;20473;-79
2021/09/20 05:22:28;;;;;;;8.00;7.20;;;;;;;;;;5073604;28;20469;-79
2021/09/20 05:24:56;;;;;;;8.10;7.30;;;;;;;;;;5073951;28;20443;-78
2021/09/20 05:27:23;;;;;;;9.40;8.40;;;;;;;;;;5074038;28;20758;-77
2021/09/20 05:29:50;;;;;;;9.07;7.80;;;;;;;;;;5073377;28;20471;-79
2021/09/20 05:32:18;;;;;;;10.50;9.03;;;;;;;;;;5073569;28;20432;-78
2021/09/20 05:34:45;;;;;;;8.57;7.73;;;;;;;;;;5071303;28;20483;-79
2021/09/20 05:37:12;;;;;;;8.23;7.43;;;;;;;;;;5073396;28;20448;-77
2021/09/20 05:39:39;;;;;;;10.10;8.33;;;;;;;;;;5072643;28;20817;-79
2021/09/20 05:42:07;;;;;;;9.50;8.40;;;;;;;;;;5073239;28;20444;-78
2021/09/20 05:44:35;;;;;;;8.87;7.97;;;;;;;;;;5073309;28;20451;-77
2021/09/20 05:47:02;;;;;;;9.40;8.50;;;;;;;;;;5071003;28;20444;-79
2021/09/20 05:49:29;;;;;;;8.47;7.67;;;;;;;;;;5032237;28;21024;-76
2021/09/20 05:51:56;;;;;;;9.07;7.50;;;;;;;;;;5066909;28;20452;-78
2021/09/20 05:54:23;;;;;;;11.33;8.13;;;;;;;;;;5073482;28;20483;-76
2021/09/20 05:56:51;;;;;;;9.43;7.93;;;;;;;;;;5070484;28;20436;-77
2021/09/20 05:59:19;;;;;;;7.73;7.00;;;;;;;;;;5071449;28;20471;-76
2021/09/20 06:01:46;;;;;;;9.37;7.53;;;;;;;;;;5072653;28;20811;-76
2021/09/20 06:04:14;;;;;;;8.50;7.27;;;;;;;;;;5073385;28;20917;-81
2021/09/20 06:06:41;;;;;;;7.90;7.10;;;;;;;;;;5073397;28;20562;-78
2021/09/20 06:09:08;;;;;;;10.00;7.60;;;;;;;;;;5072828;28;20482;-79
2021/09/20 06:11:35;;;;;;;8.53;7.47;;;;;;;;;;5075014;28;20462;-76
2021/09/20 06:14:02;;;;;;;9.00;7.70;;;;;;;;;;5075142;28;21016;-77
2021/09/20 06:16:31;;;;;;;10.93;8.13;;;;;;;;;;5073311;28;20769;-77
2021/09/20 06:18:58;;;;;;;11.40;7.63;;;;;;;;;;5069819;28;20456;-80
2021/09/20 06:21:25;;;;;;;8.37;7.57;;;;;;;;;;5070860;28;20451;-83
2021/09/20 06:23:52;;;;;;;7.97;7.17;;;;;;;;;;5073063;28;20432;-80
2021/09/20 06:26:20;;;;;;;8.53;7.10;;;;;;;;;;5072736;28;20455;-79
2021/09/20 06:28:47;;;;;;;9.13;7.43;;;;;;;;;;5072529;28;20451;-79
2021/09/20 06:31:14;;;;;;;9.40;6.57;;;;;;;;;;5073690;28;20453;-81
2021/09/20 06:33:42;;;;;;;8.70;7.07;;;;;;;;;;5074674;28;20472;-78
2021/09/20 06:36:10;;;;;;;8.13;7.23;;;;;;;;;;5074707;28;20455;-78
2021/09/20 06:38:37;;;;;;;6.90;5.83;;;;;;;;;;5074100;28;20873;-76
2021/09/20 06:41:04;;;;;;;7.23;5.90;;;;;;;;;;5070086;28;20457;-77
2021/09/20 06:43:31;;;;;;;7.80;6.50;;;;;;;;;;5071103;28;20453;-76
2021/09/20 06:45:58;;;;;;;9.40;7.40;;;;;;;;;;5072460;28;20453;-77
2021/09/20 06:48:25;;;;;;;7.27;6.53;;;;;;;;;;5071410;28;20450;-76
2021/09/20 06:50:54;;;;;;;7.27;6.57;;;;;;;;;;5072681;28;20815;-77
2021/09/20 06:53:21;;;;;;;8.00;6.30;;;;;;;;;;5073455;28;20471;-77
2021/09/20 06:55:48;;;;;;;8.17;6.60;;;;;;;;;;5074354;28;20479;-76
2021/09/20 06:58:15;;;;;;;8.13;6.40;;;;;;;;;;5074624;28;20445;-78
2021/09/20 07:00:42;;;;;;;10.37;6.80;;;;;;;;;;5073719;28;20463;-77
2021/09/20 07:03:12;;;;;;;7.27;6.43;;;;;;;;;;5070120;28;20436;-78
2021/09/20 07:05:39;;;;;;;8.20;6.33;;;;;;;;;;5070992;28;20452;-78
2021/09/20 07:08:07;;;;;;;7.60;6.37;;;;;;;;;;5072027;28;20479;-77
2021/09/20 07:10:35;;;;;;;8.13;7.37;;;;;;;;;;5071991;28;20470;-78
2021/09/20 07:13:02;;;;;;;9.30;6.50;;;;;;;;;;5072257;28;20475;-76
2021/09/20 07:15:29;;;;;;;8.67;7.03;;;;;;;;;;5073289;28;20940;-77
2021/09/20 07:17:56;;;;;;;7.20;6.50;;;;;;;;;;5072983;28;20449;-76
2021/09/20 07:20:24;;;;;;;7.83;6.40;;;;;;;;;;5074115;28;21219;-78
2021/09/20 07:22:51;;;;;;;7.83;6.87;;;;;;;;;;5072890;28;20444;-78
2021/09/20 07:25:19;;;;;;;8.67;6.63;;;;;;;;;;5069684;28;20794;-78
2021/09/20 07:27:47;;;;;;;7.50;6.70;;;;;;;;;;5070693;28;20448;-79
2021/09/20 07:30:17;;;;;;;10.23;6.97;;;;;;;;;;5070294;28;20482;-79
2021/09/20 07:32:44;;;;;;;6.90;6.30;;;;;;;;;;5071918;28;20451;-79
2021/09/20 07:35:13;;;;;;;7.20;6.17;;;;;;;;;;5071711;28;20488;-81
2021/09/20 07:37:40;;;;;;;7.50;6.07;;;;;;;;;;5071533;28;20460;-83
2021/09/20 07:40:07;;;;;;;6.87;6.27;;;;;;;;;;5073874;28;20464;-76
2021/09/20 07:42:36;;;;;;;5.47;4.97;;;;;;;;;;5073980;28;20451;-79
2021/09/20 07:45:03;;;;;;;6.33;5.73;;;;;;;;;;5072727;28;21011;-79
2021/09/20 07:47:30;;;;;;;7.00;6.40;;;;;;;;;;5069138;28;20450;-83
2021/09/20 07:49:57;;;;;;;6.77;6.10;;;;;;;;;;5070075;28;20474;-79
2021/09/20 07:52:25;;;;;;;6.70;6.00;;;;;;;;;;5071871;28;20450;-83
2021/09/20 07:54:52;;;;;;;8.23;6.17;;;;;;;;;;5076485;28;20814;-77
2021/09/20 07:57:19;;;;;;;6.67;5.93;;;;;;;;;;5071858;28;20539;-81
2021/09/20 07:59:47;;;;;;;7.47;6.10;;;;;;;;;;5067799;28;20472;-79
2021/09/20 08:02:15;;;;;;;7.00;6.30;;;;;;;;;;5068659;28;20452;-81
2021/09/20 08:04:42;;;;;;;7.47;6.27;;;;;;;;;;5068388;28;20455;-78
2021/09/20 08:07:09;;;;;;;6.40;5.80;;;;;;;;;;5065085;28;20485;-78
2021/09/20 08:09:38;;;;;;;6.87;6.10;;;;;;;;;;5061159;28;20964;-80
2021/09/20 08:12:06;;;;;;;8.43;6.40;;;;;;;;;;5068823;28;20446;-81
2021/09/20 08:14:33;;;;;;;8.13;6.40;;;;;;;;;;5070910;28;20561;-81
2021/09/20 08:17:02;;;;;;;6.47;5.80;;;;;;;;;;5069530;28;20463;-80
2021/09/20 08:19:29;;;;;;;6.47;5.97;;;;;;;;;;5066704;28;20464;-79
2021/09/20 08:21:56;;;;;;;6.30;5.70;;;;;;;;;;5069602;28;20456;-78
2021/09/20 08:24:24;;;;;;;6.70;6.10;;;;;;;;;;5071145;28;20913;-79
2021/09/20 08:26:51;;;;;;;6.83;6.17;;;;;;;;;;5091525;28;20416;-82
2021/09/20 08:29:18;;;;;;;6.30;5.70;;;;;;;;;;5091743;28;20963;-78
2021/09/20 08:31:45;;;;;;;6.17;5.63;;;;;;;;;;5076495;28;20463;-77
2021/09/20 08:34:14;;;;;;;6.77;6.17;;;;;;;;;;5071225;28;20463;-82
2021/09/20 08:36:41;;;;;;;6.60;6.10;;;;;;;;;;5073946;28;20462;-75
2021/09/20 08:39:08;;;;;;;6.67;6.10;;;;;;;;;;5072625;28;20486;-77
2021/09/20 08:41:35;;;;;;;8.73;7.93;;;;;;;;;;5067606;28;20939;-78
2021/09/20 08:44:02;;;;;;;6.53;5.93;;;;;;;;;;5069618;28;20452;-76
2021/09/20 08:46:30;;;;;;;6.07;5.57;;;;;;;;;;5070653;28;20483;-80
2021/09/20 08:48:57;;;;;;;11.30;6.67;;;;;;;;;;5070994;28;20444;-78
2021/09/20 08:51:25;;;;;;;7.10;6.27;;;;;;;;;;5070044;28;20980;-77
2021/09/20 08:53:53;;;;;;;6.37;5.33;;;;;;;;;;5071162;28;20465;-78
2021/09/20 08:56:20;;;;;;;6.60;5.80;;;;;;;;;;5072987;28;20864;-77
2021/09/20 08:58:47;;;;;;;6.83;6.10;;;;;;;;;;5071983;28;20478;-76
2021/09/20 09:01:14;;;;;;;6.57;5.80;;;;;;;;;;5070838;28;20449;-80
2021/09/20 09:03:42;;;;;;;6.27;5.67;;;;;;;;;;5068760;28;20417;-78
2021/09/20 09:06:09;;;;;;;8.70;6.70;;;;;;;;;;5067458;28;20542;-79
2021/09/20 09:08:38;;;;;;;7.13;5.97;;;;;;;;;;5067643;28;20491;-75
2021/09/20 09:11:07;;;;;;;6.37;5.73;;;;;;;;;;5089358;28;20464;-78
2021/09/20 09:13:35;;;;;;;6.33;5.70;;;;;;;;;;5071954;28;20434;-75
2021/09/20 09:16:12;;;;;;;6.83;5.73;;;;;;;;;;5074669;28;20492;-75
2021/09/20 09:18:54;;;;;;;6.23;5.63;;;;;;;;;;5074849;28;20459;-80
2021/09/20 09:21:22;;;;;;;6.00;5.40;;;;;;;;;;5075390;28;20799;-77
2021/09/20 09:23:59;;;;;;;6.20;5.60;;;;;;;;;;5073198;28;20460;-80
2021/09/20 09:26:26;;;;;;;5.37;4.87;;;;;;;;;;5070771;28;20446;-80
2021/09/20 09:28:54;;;;;;;6.50;5.90;;;;;;;;;;5070619;28;21009;-78
2021/09/20 09:31:21;;;;;;;9.30;5.90;;;;;;;;;;5073201;28;20458;-80
2021/09/20 09:33:48;;;;;;;6.33;5.73;;;;;;;;;;5074699;28;20452;-77
2021/09/20 09:36:17;;;;;;;5.57;4.97;;;;;;;;;;5073357;28;20457;-79
2021/09/20 09:38:59;;;;;;;8.67;5.50;;;;;;;;;;5074235;28;20457;-79
2021/09/20 09:41:34;;;;;;;6.20;5.53;;;;;;;;;;5073727;28;20972;-78
2021/09/20 09:44:05;;;;;;;6.27;5.67;;;;;;;;;;5074986;28;20442;-77
2021/09/20 09:46:37;;;;;;;5.60;5.03;;;;;;;;;;5073934;28;20445;-81
2021/09/20 09:49:11;;;;;;;5.90;5.40;;;;;;;;;;5069503;28;20460;-76
2021/09/20 09:51:53;;;;;;;5.57;5.07;;;;;;;;;;5073142;28;20412;-77
2021/09/20 09:54:26;;;;;;;5.90;5.40;;;;;;;;;;5071733;28;20434;-78
2021/09/20 09:57:10;;;;;;;5.57;5.07;;;;;;;;;;5059194;28;20421;-75
2021/09/20 09:59:38;;;;;;;5.50;5.00;;;;;;;;;;5072667;28;20468;-78
2021/09/20 10:02:16;;;;;;;6.07;5.40;;;;;;;;;;5071377;28;20890;-79
2021/09/20 10:04:49;;;;;;;6.03;5.43;;;;;;;;;;5067613;28;20413;-77
2021/09/20 10:07:22;;;;;;;6.00;5.47;;;;;;;;;;5068007;28;20435;-79
2021/09/20 10:09:50;;;;;;;5.90;5.40;;;;;;;;;;5069478;28;20852;-78
2021/09/20 10:12:19;;;;;;;6.10;5.50;;;;;;;;;;5069882;28;20803;-74
2021/09/20 10:14:49;;;;;;;6.60;5.43;;;;;;;;;;5068678;28;20466;-77
2021/09/20 10:17:18;;;;;;;7.20;5.77;;;;;;;;;;5069228;28;20436;-79
2021/09/20 10:19:46;;;;;;;5.83;5.33;;;;;;;;;;5071349;28;20503;-80
2021/09/20 10:22:14;;;;;;;6.10;5.50;;;;;;;;;;5071569;28;20799;-78
2021/09/20 10:24:42;;;;;;;5.50;5.00;;;;;;;;;;5070864;28;20442;-77
2021/09/20 10:27:09;;;;;;;6.20;5.30;;;;;;;;;;5066917;28;20886;-76
2021/09/20 10:29:39;;;;;;;6.80;5.40;;;;;;;;;;5067497;28;20471;-78
2021/09/20 10:32:06;;;;;;;6.97;6.20;;;;;;;;;;5069998;28;20507;-75
2021/09/20 10:34:34;;;;;;;5.70;5.20;;;;;;;;;;5067538;28;20467;-77
2021/09/20 10:37:02;;;;;;;5.70;5.10;;;;;;;;;;5069697;28;20440;-77
2021/09/20 10:39:44;;;;;;;5.27;4.80;;;;;;;;;;5068421;28;20483;-78
2021/09/20 10:42:12;;;;;;;5.10;4.70;;;;;;;;;;5071685;28;20448;-76
2021/09/20 10:44:41;;;;;;;5.40;4.90;;;;;;;;;;5070498;28;20463;-75
2021/09/20 10:47:15;;;;;;;6.03;5.03;;;;;;;;;;5070695;28;20441;-77
2021/09/20 10:49:48;;;;;;;4.93;4.37;;;;;;;;;;5068806;28;20519;-77
2021/09/20 10:52:16;;;;;;;5.83;5.27;;;;;;;;;;5070035;28;20967;-74
2021/09/20 10:55:01;;;;;;;6.17;5.00;;;;;;;;;;5070475;28;20430;-75
2021/09/20 10:57:29;;;;;;;5.90;5.30;;;;;;;;;;5071159;28;20421;-77
2021/09/20 11:00:11;;;;;;;5.10;4.70;;;;;;;;;;5072606;28;20441;-77
2021/09/20 11:02:39;;;;;;;5.00;4.60;;;;;;;;;;5071565;28;21052;-77
2021/09/20 11:05:07;;;;;;;7.33;5.27;;;;;;;;;;5074474;28;20534;-75
2021/09/20 11:07:43;;;;;;;5.63;4.80;;;;;;;;;;5074153;28;20802;-78
2021/09/20 11:10:11;;;;;;;5.23;4.77;;;;;;;;;;5073207;28;20941;-79
2021/09/20 11:12:53;;;;;;;5.13;4.73;;;;;;;;;;5069991;28;20417;-80
2021/09/20 11:15:20;;;;;;;5.20;4.80;;;;;;;;;;5069315;28;20479;-80
2021/09/20 11:17:50;;;;;;;6.23;4.43;;;;;;;;;;5071817;28;20430;-78
2021/09/20 11:20:33;;;;;;;4.50;4.10;;;;;;;;;;5070242;28;20450;-78
2021/09/20 11:23:15;;;;;;;4.63;4.23;;;;;;;;;;5067575;28;20995;-79
2021/09/20 11:25:42;;;;;;;5.80;5.10;;;;;;;;;;5068859;28;20475;-76
2021/09/20 11:28:09;;;;;;;5.10;4.67;;;;;;;;;;5068734;28;20419;-77
2021/09/20 11:30:36;;;;;;;4.70;4.30;;;;;;;;;;5070093;28;20482;-77
2021/09/20 11:33:10;;;;;;;6.20;5.10;;;;;;;;;;5070872;28;20476;-78
2021/09/20 11:35:38;;;;;;;6.03;4.93;;;;;;;;;;5070792;28;20453;-77
2021/09/20 11:38:11;;;;;;;4.93;4.50;;;;;;;;;;5071458;28;20407;-77
2021/09/20 11:40:38;;;;;;;6.07;4.43;;;;;;;;;;5071594;28;20988;-77
2021/09/20 11:43:06;;;;;;;6.00;5.40;;;;;;;;;;5070371;28;20456;-75
2021/09/20 11:45:35;;;;;;;6.13;4.43;;;;;;;;;;5072047;28;20455;-78
2021/09/20 11:48:03;;;;;;;4.83;4.43;;;;;;;;;;5071871;28;20452;-78
2021/09/20 11:50:32;;;;;;;5.20;4.70;;;;;;;;;;5067039;28;20487;-77
2021/09/20 11:53:01;;;;;;;5.87;5.10;;;;;;;;;;5084496;28;20443;-77
2021/09/20 11:55:30;;;;;;;5.30;4.67;;;;;;;;;;5071929;28;20615;-78
2021/09/20 11:57:57;;;;;;;4.83;4.43;;;;;;;;;;5070416;28;20488;-77
2021/09/20 12:00:27;;;;;;;7.43;4.00;;;;;;;;;;5067073;28;20567;-78
2021/09/20 12:02:54;;;;;;;5.63;4.70;;;;;;;;;;5056188;28;20532;-79
2021/09/20 12:05:23;;;;;;;4.73;4.17;;;;;;;;;;5098781;28;20954;-79
2021/09/20 12:07:53;;;;;;;5.53;4.27;;;;;;;;;;5070783;28;20480;-76
2021/09/20 12:10:22;;;;;;;4.13;3.73;;;;;;;;;;5070044;28;20479;-78
2021/09/20 12:12:51;;;;;;;4.10;3.80;;;;;;;;;;5067226;28;20561;-75
2021/09/20 12:15:18;;;;;;;5.90;4.50;;;;;;;;;;5067683;28;21137;-80
2021/09/20 12:17:47;;;;;;;4.70;4.30;;;;;;;;;;5070262;28;20466;-80
2021/09/20 12:20:15;;;;;;;4.20;3.80;;;;;;;;;;5071435;28;20468;-79
2021/09/20 12:22:42;;;;;;;5.33;4.60;;;;;;;;;;5071016;28;20463;-76
2021/09/20 12:25:24;;;;;;;5.23;4.63;;;;;;;;;;5071758;28;20460;-80
2021/09/20 12:27:54;;;;;;;5.13;4.70;;;;;;;;;;5072351;28;20451;-78
2021/09/20 12:30:22;;;;;;;4.60;4.20;;;;;;;;;;5074955;28;20479;-79
2021/09/20 12:32:50;;;;;;;5.07;4.20;;;;;;;;;;5068803;28;21047;-81
2021/09/20 12:35:17;;;;;;;4.70;4.30;;;;;;;;;;5068507;28;20447;-77
2021/09/20 12:37:44;;;;;;;5.63;4.50;;;;;;;;;;5069258;28;20444;-79
2021/09/20 12:40:19;;;;;;;5.63;4.60;;;;;;;;;;5070210;28;20846;-79
2021/09/20 12:43:01;;;;;;;4.90;4.50;;;;;;;;;;5068999;28;20446;-79
2021/09/20 12:45:30;;;;;;;4.97;4.57;;;;;;;;;;5071498;28;20452;-76
2021/09/20 12:47:57;;;;;;;5.83;4.53;;;;;;;;;;5074706;28;20488;-78
2021/09/20 12:50:25;;;;;;;5.30;4.80;;;;;;;;;;5076142;28;20463;-78
2021/09/20 12:52:55;;;;;;;5.90;5.30;;;;;;;;;;5077204;28;20446;-76
2021/09/20 12:55:32;;;;;;;5.10;4.60;;;;;;;;;;5074608;28;20806;-79
2021/09/20 12:58:00;;;;;;;5.03;4.20;;;;;;;;;;5071824;28;20460;-76
2021/09/20 13:00:33;;;;;;;6.07;5.57;;;;;;;;;;5072812;28;20468;-76
2021/09/20 13:03:08;;;;;;;5.10;4.70;;;;;;;;;;5073757;28;20900;-77
2021/09/20 13:05:42;;;;;;;5.50;5.10;;;;;;;;;;5074998;28;20439;-76
2021/09/20 13:08:09;;;;;;;4.83;4.20;;;;;;;;;;5074417;28;20472;-78
2021/09/20 13:10:42;;;;;;;5.07;4.67;;;;;;;;;;5074849;28;20484;-78
2021/09/20 13:13:09;;;;;;;5.40;4.30;;;;;;;;;;5069849;28;20555;-78
2021/09/20 13:15:43;;;;;;;4.17;3.77;;;;;;;;;;5071237;28;20835;-77
2021/09/20 13:18:19;;;;;;;5.87;4.63;;;;;;;;;;5074400;28;20537;-76
2021/09/20 13:20:46;;;;;;;4.97;4.47;;;;;;;;;;5072643;28;20483;-77
2021/09/20 13:23:14;;;;;;;5.17;4.67;;;;;;;;;;5074339;28;20448;-80
2021/09/20 13:25:44;;;;;;;4.80;4.40;;;;;;;;;;5073463;28;20538;-78
2021/09/20 13:28:12;;;;;;;4.37;4.07;;;;;;;;;;5076445;28;20490;-80
2021/09/20 13:30:41;;;;;;;4.97;4.47;;;;;;;;;;5072920;28;20476;-77
2021/09/20 13:33:09;;;;;;;4.93;3.87;;;;;;;;;;5077465;28;20470;-78
2021/09/20 13:35:38;;;;;;;4.93;4.13;;;;;;;;;;5071586;28;20799;-80
2021/09/20 13:38:06;;;;;;;4.73;4.30;;;;;;;;;;5071430;28;20415;-76
2021/09/20 13:40:33;;;;;;;4.73;4.10;;;;;;;;;;5073968;28;20481;-79
2021/09/20 13:43:01;;;;;;;4.47;4.07;;;;;;;;;;5072878;28;20460;-79
2021/09/20 13:45:28;;;;;;;5.00;4.27;;;;;;;;;;5071818;28;20514;-84
2021/09/20 13:47:57;;;;;;;4.57;4.17;;;;;;;;;;5074751;28;20468;-76
2021/09/20 13:50:24;;;;;;;4.50;4.10;;;;;;;;;;5074299;28;20476;-79
2021/09/20 13:52:51;;;;;;;5.60;5.10;;;;;;;;;;5075215;28;20456;-75
2021/09/20 13:55:18;;;;;;;4.60;4.10;;;;;;;;;;5076359;28;20531;-79
2021/09/20 13:57:46;;;;;;;5.97;5.37;;;;;;;;;;5070976;28;20479;-77
2021/09/20 14:00:13;;;;;;;4.70;4.30;;;;;;;;;;5071264;28;20465;-78
2021/09/20 14:02:41;;;;;;;4.97;4.57;;;;;;;;;;5072578;28;20904;-82
2021/09/20 14:05:11;;;;;;;5.07;4.57;;;;;;;;;;5073396;28;20761;-78
2021/09/20 14:07:39;;;;;;;4.60;4.20;;;;;;;;;;5072354;28;20468;-77
2021/09/20 14:10:06;;;;;;;4.40;4.00;;;;;;;;;;5073699;28;20480;-75
2021/09/20 14:12:34;;;;;;;5.00;4.60;;;;;;;;;;5075616;28;20536;-80
2021/09/20 14:15:01;;;;;;;5.60;5.10;;;;;;;;;;5075309;28;20444;-78
2021/09/20 14:17:28;;;;;;;6.07;4.40;;;;;;;;;;5075210;28;20455;-77
2021/09/20 14:19:55;;;;;;;4.33;3.90;;;;;;;;;;5070367;28;20503;-77
2021/09/20 14:22:25;;;;;;;4.43;4.13;;;;;;;;;;5070674;28;20456;-76
2021/09/20 14:24:52;;;;;;;4.40;4.00;;;;;;;;;;5072274;28;20471;-77
2021/09/20 14:27:21;;;;;;;4.50;4.10;;;;;;;;;;5071021;28;20441;-78
2021/09/20 14:29:49;;;;;;;4.60;4.20;;;;;;;;;;5076354;28;20830;-77
2021/09/20 14:32:16;;;;;;;4.20;3.80;;;;;;;;;;5071937;28;20461;-78
2021/09/20 14:34:44;;;;;;;4.47;4.07;;;;;;;;;;5070438;28;20437;-79
2021/09/20 14:37:11;;;;;;;3.83;3.53;;;;;;;;;;5070923;28;20537;-79
2021/09/20 14:39:40;;;;;;;4.20;3.80;;;;;;;;;;5069881;28;21035;-77
2021/09/20 14:42:07;;;;;;;4.90;4.40;;;;;;;;;;5071013;28;20444;-78
2021/09/20 14:44:34;;;;;;;5.80;4.30;;;;;;;;;;5071658;28;21112;-77
2021/09/20 14:47:01;;;;;;;4.33;3.97;;;;;;;;;;5071607;28;20440;-78